createdAt,value
2023-03-29T00:00:57.792Z,-1.79
2023-03-29T00:02:59.357Z,-1.83
2023-03-29T00:05:01.030Z,-1.90
2023-03-29T00:07:02.687Z,-1.88
2023-03-29T00:09:04.448Z,-1.92
2023-03-29T00:11:05.876Z,-1.83
2023-03-29T00:13:07.349Z,-1.89
2023-03-29T00:15:09.026Z,-1.78
2023-03-29T00:17:10.487Z,-1.76
2023-03-29T00:19:12.198Z,-1.89
2023-03-29T00:21:13.728Z,-1.87
2023-03-29T00:23:15.124Z,-1.93
2023-03-29T00:25:16.774Z,-1.80
2023-03-29T00:27:18.223Z,-1.90
2023-03-29T00:29:19.630Z,-1.73
2023-03-29T00:31:21.340Z,-1.80
2023-03-29T00:33:22.754Z,-1.71
2023-03-29T00:35:24.242Z,-1.73
2023-03-29T00:37:25.820Z,-1.66
2023-03-29T00:39:27.502Z,-1.85
2023-03-29T00:41:28.909Z,-1.73
2023-03-29T00:43:30.374Z,-1.76
2023-03-29T00:45:31.933Z,-1.79
2023-03-29T00:47:56.481Z,-1.84
2023-03-29T00:50:04.961Z,-1.93
2023-03-29T00:52:07.504Z,-1.81
2023-03-29T00:54:13.853Z,-1.94
2023-03-29T00:56:37.039Z,-1.89
2023-03-29T00:58:43.968Z,-1.94
2023-03-29T01:00:52.345Z,-1.93
2023-03-29T01:02:57.448Z,-1.86
2023-03-29T01:05:21.209Z,-1.88
2023-03-29T01:07:30.049Z,-1.81
2023-03-29T01:09:35.670Z,-1.79
2023-03-29T01:11:46.601Z,-1.74
2023-03-29T01:14:13.780Z,-2.06
2023-03-29T01:16:16.225Z,-2.12
2023-03-29T01:18:18.148Z,-2.06
2023-03-29T01:20:38.108Z,-2.19
2023-03-29T01:22:50.695Z,-2.17
2023-03-29T01:25:19.646Z,-2.25
2023-03-29T01:27:32.384Z,-2.27
2023-03-29T01:29:38.579Z,-2.31
2023-03-29T01:31:44.230Z,-2.31
2023-03-29T01:33:50.934Z,-2.28
2023-03-29T01:36:01.303Z,-2.22
2023-03-29T01:38:24.107Z,-2.16
2023-03-29T01:40:25.670Z,-2.23
2023-03-29T01:42:31.411Z,-2.24
2023-03-29T01:44:47.553Z,-2.34
2023-03-29T01:46:55.925Z,-2.38
2023-03-29T01:49:16.525Z,-2.34
2023-03-29T01:51:28.233Z,-2.45
2023-03-29T01:53:32.366Z,-2.31
2023-03-29T01:55:37.814Z,-2.34
2023-03-29T01:57:43.685Z,-2.20
2023-03-29T01:59:46.332Z,-2.18
2023-03-29T02:01:56.220Z,-2.24
2023-03-29T02:04:03.529Z,-2.38
2023-03-29T02:06:05.446Z,-2.41
2023-03-29T02:08:09.190Z,-2.43
2023-03-29T02:10:12.129Z,-2.38
2023-03-29T02:12:16.840Z,-2.36
2023-03-29T02:14:18.526Z,-2.24
2023-03-29T02:16:20.845Z,-2.25
2023-03-29T02:18:22.732Z,-2.34
2023-03-29T02:20:30.135Z,-2.26
2023-03-29T02:22:41.218Z,-2.40
2023-03-29T02:24:45.293Z,-2.38
2023-03-29T02:26:47.116Z,-2.27
2023-03-29T02:28:48.634Z,-2.36
2023-03-29T02:31:05.635Z,-2.43
2023-03-29T02:33:26.522Z,-2.39
2023-03-29T02:35:34.837Z,-2.41
2023-03-29T02:37:37.905Z,-2.65
2023-03-29T02:39:40.323Z,-2.52
2023-03-29T02:41:45.737Z,-2.49
2023-03-29T02:43:48.073Z,-2.47
2023-03-29T02:45:51.003Z,-2.46
2023-03-29T02:47:56.260Z,-2.60
2023-03-29T02:49:58.890Z,-2.53
2023-03-29T02:52:11.200Z,-2.45
2023-03-29T02:54:18.741Z,-2.53
2023-03-29T02:56:20.729Z,-2.57
2023-03-29T02:58:22.129Z,-2.47
2023-03-29T03:00:23.772Z,-2.49
2023-03-29T03:02:26.168Z,-2.47
2023-03-29T03:04:27.688Z,-2.46
2023-03-29T03:06:29.406Z,-2.55
2023-03-29T03:08:30.840Z,-2.60
2023-03-29T03:10:32.443Z,-2.58
2023-03-29T03:12:34.073Z,-2.72
2023-03-29T03:14:35.508Z,-2.74
2023-03-29T03:16:37.512Z,-2.77
2023-03-29T03:18:39.093Z,-2.90
2023-03-29T03:20:40.536Z,-2.91
2023-03-29T03:22:44.700Z,-2.81
2023-03-29T03:24:46.346Z,-2.83
2023-03-29T03:26:47.859Z,-2.89
2023-03-29T03:28:49.269Z,-2.91
2023-03-29T03:30:51.374Z,-2.80
2023-03-29T03:32:53.363Z,-2.86
2023-03-29T03:34:54.850Z,-2.70
2023-03-29T03:36:56.422Z,-2.75
2023-03-29T03:38:57.822Z,-2.77
2023-03-29T03:41:00.814Z,-2.79
2023-03-29T03:43:02.739Z,-2.71
2023-03-29T03:45:04.755Z,-2.85
2023-03-29T03:47:06.554Z,-2.77
2023-03-29T03:49:08.134Z,-2.67
2023-03-29T03:51:10.078Z,-2.72
2023-03-29T03:53:11.699Z,-2.62
2023-03-29T03:55:13.080Z,-2.60
2023-03-29T03:57:14.502Z,-2.59
2023-03-29T03:59:16.318Z,-2.57
2023-03-29T04:01:17.891Z,-2.60
2023-03-29T04:03:19.497Z,-2.61
2023-03-29T04:05:21.132Z,-2.60
2023-03-29T04:07:22.743Z,-2.78
2023-03-29T04:09:24.178Z,-2.78
2023-03-29T04:11:25.786Z,-2.79
2023-03-29T04:13:27.505Z,-2.65
2023-03-29T04:15:29.549Z,-2.58
2023-03-29T04:17:31.069Z,-2.61
2023-03-29T04:19:32.702Z,-2.94
2023-03-29T04:21:34.108Z,-2.80
2023-03-29T04:23:36.196Z,-2.94
2023-03-29T04:25:37.648Z,-2.76
2023-03-29T04:27:39.285Z,-2.73
2023-03-29T04:29:40.907Z,-2.75
2023-03-29T04:31:42.339Z,-2.69
2023-03-29T04:33:43.834Z,-2.80
2023-03-29T04:35:45.248Z,-3.01
2023-03-29T04:37:46.750Z,-2.78
2023-03-29T04:39:49.758Z,-2.97
2023-03-29T04:41:51.391Z,-2.76
2023-03-29T04:43:52.868Z,-2.75
2023-03-29T04:45:54.321Z,-2.72
2023-03-29T04:47:59.457Z,-2.50
2023-03-29T04:50:01.170Z,-2.56
2023-03-29T04:52:02.573Z,-2.57
2023-03-29T04:54:04.374Z,-2.54
2023-03-29T04:56:06.439Z,-2.49
2023-03-29T04:58:07.885Z,-2.59
2023-03-29T05:00:10.028Z,-2.30
2023-03-29T05:02:11.543Z,-2.27
2023-03-29T05:04:13.091Z,-2.09
2023-03-29T05:06:14.744Z,-1.41
2023-03-29T05:08:16.611Z,-1.54
2023-03-29T05:10:18.096Z,-1.59
2023-03-29T05:12:19.750Z,-1.62
2023-03-29T05:14:21.342Z,-0.78
2023-03-29T05:16:22.834Z,0.81
2023-03-29T05:18:24.410Z,1.90
2023-03-29T05:20:26.461Z,2.05
2023-03-29T05:22:27.869Z,2.76
2023-03-29T05:24:29.470Z,3.62
2023-03-29T05:26:31.279Z,2.01
2023-03-29T05:28:32.659Z,3.32
2023-03-29T05:30:34.153Z,4.49
2023-03-29T05:32:38.797Z,5.33
2023-03-29T05:34:40.439Z,5.95
2023-03-29T05:36:42.138Z,6.42
2023-03-29T05:38:43.788Z,6.43
2023-03-29T05:40:45.174Z,6.74
2023-03-29T05:42:46.788Z,6.78
2023-03-29T05:44:48.269Z,6.34
2023-03-29T05:46:49.672Z,6.93
2023-03-29T05:48:51.626Z,6.64
2023-03-29T05:50:54.895Z,6.86
2023-03-29T05:52:56.317Z,6.40
2023-03-29T05:54:57.908Z,6.56
2023-03-29T05:56:59.441Z,6.99
2023-03-29T05:59:00.902Z,7.29
2023-03-29T06:01:02.569Z,7.41
2023-03-29T06:03:14.098Z,6.15
2023-03-29T06:05:21.573Z,6.44
2023-03-29T06:07:23.402Z,6.72
2023-03-29T06:09:24.872Z,6.91
2023-03-29T06:11:26.376Z,7.21
2023-03-29T06:13:29.559Z,6.57
2023-03-29T06:15:31.222Z,6.43
2023-03-29T06:17:32.650Z,7.31
2023-03-29T06:19:34.216Z,7.66
2023-03-29T06:21:35.792Z,7.09
2023-03-29T06:23:37.340Z,6.52
2023-03-29T06:25:39.009Z,7.05
2023-03-29T06:27:40.582Z,7.28
2023-03-29T06:29:42.797Z,7.62
2023-03-29T06:31:44.400Z,7.07
2023-03-29T06:33:46.040Z,6.32
2023-03-29T06:35:48.773Z,5.58
2023-03-29T06:37:50.367Z,6.06
2023-03-29T06:39:53.231Z,5.68
2023-03-29T06:41:54.786Z,6.49
2023-03-29T06:43:56.468Z,6.57
2023-03-29T06:45:58.645Z,6.77
2023-03-29T06:48:00.222Z,6.94
2023-03-29T06:50:01.895Z,6.50
2023-03-29T06:52:03.738Z,6.32
2023-03-29T06:54:05.165Z,7.03
2023-03-29T06:56:06.985Z,7.19
2023-03-29T06:58:08.563Z,7.49
2023-03-29T07:00:11.202Z,7.24
2023-03-29T07:02:14.100Z,7.37
2023-03-29T07:04:15.750Z,7.20
2023-03-29T07:06:17.216Z,7.55
2023-03-29T07:08:19.019Z,6.95
2023-03-29T07:10:26.372Z,6.77
2023-03-29T07:12:27.831Z,6.66
2023-03-29T07:14:29.443Z,6.91
2023-03-29T07:16:31.143Z,7.09
2023-03-29T07:18:32.591Z,6.79
2023-03-29T07:20:34.133Z,6.36
2023-03-29T07:22:35.691Z,6.58
2023-03-29T07:24:37.162Z,6.18
2023-03-29T07:26:40.489Z,6.67
2023-03-29T07:28:45.567Z,7.52
2023-03-29T07:30:46.985Z,7.58
2023-03-29T07:32:50.456Z,8.18
2023-03-29T07:34:51.976Z,7.94
2023-03-29T07:36:53.407Z,8.51
2023-03-29T07:38:56.424Z,7.25
2023-03-29T07:40:58.528Z,7.19
2023-03-29T07:42:59.956Z,7.31
2023-03-29T07:45:01.637Z,7.57
2023-03-29T07:47:03.653Z,7.18
2023-03-29T07:49:05.060Z,6.84
2023-03-29T07:51:07.376Z,7.15
2023-03-29T07:53:09.488Z,7.28
2023-03-29T07:55:12.559Z,7.44
2023-03-29T07:57:14.643Z,7.62
2023-03-29T07:59:16.442Z,7.26
2023-03-29T08:01:19.456Z,7.06
2023-03-29T08:03:21.611Z,6.81
2023-03-29T08:05:37.863Z,6.65
2023-03-29T08:07:44.567Z,6.91
2023-03-29T08:09:46.165Z,7.14
2023-03-29T08:11:47.841Z,6.69
2023-03-29T08:13:49.252Z,6.12
2023-03-29T08:15:50.756Z,5.77
2023-03-29T08:17:52.356Z,5.37
2023-03-29T08:19:53.910Z,5.96
2023-03-29T08:21:55.562Z,6.19
2023-03-29T08:23:57.149Z,6.56
2023-03-29T08:25:58.585Z,5.79
2023-03-29T08:28:00.268Z,6.25
2023-03-29T08:30:03.203Z,6.73
2023-03-29T08:32:04.942Z,6.81
2023-03-29T08:34:06.496Z,7.07
2023-03-29T08:36:08.214Z,6.99
2023-03-29T08:38:09.683Z,6.94
2023-03-29T08:40:23.953Z,6.87
2023-03-29T08:42:40.272Z,7.08
2023-03-29T08:45:00.448Z,7.25
2023-03-29T08:47:17.968Z,7.11
2023-03-29T08:49:21.440Z,6.27
2023-03-29T08:51:28.427Z,6.68
2023-03-29T08:53:35.930Z,7.18
2023-03-29T08:55:43.096Z,7.30
2023-03-29T08:57:48.286Z,6.98
2023-03-29T08:59:52.869Z,6.68
2023-03-29T09:01:57.203Z,6.35
2023-03-29T09:04:13.868Z,6.81
2023-03-29T09:06:19.360Z,7.01
2023-03-29T09:08:22.258Z,7.49
2023-03-29T09:10:34.344Z,7.40
2023-03-29T09:12:47.539Z,7.23
2023-03-29T09:15:10.599Z,7.26
2023-03-29T09:17:38.887Z,7.80
2023-03-29T09:19:55.274Z,7.38
2023-03-29T09:21:59.578Z,7.25
2023-03-29T09:24:34.942Z,7.39
2023-03-29T09:26:45.538Z,6.97
2023-03-29T09:28:50.027Z,7.13
2023-03-29T09:31:20.392Z,6.84
2023-03-29T09:33:25.130Z,6.88
2023-03-29T09:36:01.439Z,7.90
2023-03-29T09:38:04.759Z,7.94
2023-03-29T09:40:14.509Z,8.21
2023-03-29T09:42:17.646Z,7.88
2023-03-29T09:44:30.988Z,7.60
2023-03-29T09:46:41.791Z,7.25
2023-03-29T09:48:45.008Z,7.32
2023-03-29T09:50:49.305Z,7.29
2023-03-29T09:52:50.986Z,6.81
2023-03-29T09:54:52.512Z,7.17
2023-03-29T09:56:54.014Z,7.23
2023-03-29T09:58:56.015Z,7.28
2023-03-29T10:00:59.358Z,7.26
2023-03-29T10:03:00.962Z,7.50
2023-03-29T10:05:05.769Z,7.36
2023-03-29T10:07:07.637Z,8.01
2023-03-29T10:09:16.444Z,8.52
2023-03-29T10:11:28.759Z,8.50
2023-03-29T10:13:32.823Z,8.46
2023-03-29T10:15:34.226Z,7.94
2023-03-29T10:17:40.689Z,8.09
2023-03-29T10:19:51.062Z,8.64
2023-03-29T10:21:53.910Z,8.81
2023-03-29T10:23:58.879Z,9.04
2023-03-29T10:26:03.098Z,8.50
2023-03-29T10:28:10.870Z,8.14
2023-03-29T10:30:21.154Z,8.37
2023-03-29T10:32:22.705Z,8.02
2023-03-29T10:34:24.254Z,7.72
2023-03-29T10:36:27.359Z,7.47
2023-03-29T10:38:30.034Z,7.82
2023-03-29T10:40:40.082Z,8.12
2023-03-29T10:42:47.490Z,8.41
2023-03-29T10:44:54.862Z,8.82
2023-03-29T10:46:56.284Z,8.65
2023-03-29T10:49:04.080Z,8.11
2023-03-29T10:51:06.542Z,8.39
2023-03-29T10:53:34.749Z,8.10
2023-03-29T10:55:52.631Z,8.47
2023-03-29T10:58:17.932Z,8.08
2023-03-29T11:00:31.509Z,8.07
2023-03-29T11:02:43.130Z,8.07
2023-03-29T11:04:59.724Z,8.27
2023-03-29T11:07:15.702Z,8.28
2023-03-29T11:09:50.631Z,8.77
2023-03-29T11:12:12.182Z,9.12
2023-03-29T11:14:25.169Z,9.12
2023-03-29T11:16:43.090Z,9.03
2023-03-29T11:19:13.686Z,8.31
2023-03-29T11:21:50.809Z,8.60
2023-03-29T11:24:25.025Z,8.12
2023-03-29T11:26:36.117Z,8.15
2023-03-29T11:28:49.320Z,8.19
2023-03-29T11:31:21.273Z,8.16
2023-03-29T11:33:35.079Z,8.59
2023-03-29T11:35:41.296Z,8.73
2023-03-29T11:37:51.533Z,9.04
2023-03-29T11:40:11.585Z,8.57
2023-03-29T11:42:21.441Z,8.55
2023-03-29T11:44:36.366Z,8.03
2023-03-29T11:47:05.992Z,8.63
2023-03-29T11:49:21.156Z,8.82
2023-03-29T11:51:32.228Z,9.15
2023-03-29T11:53:46.281Z,9.76
2023-03-29T11:55:49.523Z,9.59
2023-03-29T11:58:19.776Z,9.39
2023-03-29T12:00:37.340Z,9.47
2023-03-29T12:03:10.557Z,9.39
2023-03-29T12:05:20.012Z,9.74
2023-03-29T12:07:39.883Z,9.17
2023-03-29T12:09:44.855Z,8.76
2023-03-29T12:11:55.092Z,9.45
2023-03-29T12:14:21.796Z,9.21
2023-03-29T12:16:42.049Z,9.05
2023-03-29T12:18:48.288Z,9.50
2023-03-29T12:20:58.561Z,8.98
2023-03-29T12:23:00.297Z,9.21
2023-03-29T12:25:04.614Z,8.86
2023-03-29T12:27:20.850Z,9.23
2023-03-29T12:29:59.057Z,8.76
2023-03-29T12:32:12.625Z,9.12
2023-03-29T12:34:29.195Z,8.93
2023-03-29T12:36:59.750Z,8.88
2023-03-29T12:39:01.515Z,8.77
2023-03-29T12:41:15.064Z,9.21
2023-03-29T12:43:39.527Z,9.30
2023-03-29T12:45:44.890Z,9.22
2023-03-29T12:47:48.822Z,8.94
2023-03-29T12:49:58.381Z,9.10
2023-03-29T12:52:03.017Z,9.24
2023-03-29T12:54:16.897Z,9.73
2023-03-29T12:56:24.169Z,9.71
2023-03-29T12:58:28.316Z,9.38
2023-03-29T13:00:44.675Z,9.24
2023-03-29T13:03:01.696Z,9.33
2023-03-29T13:05:03.388Z,9.01
2023-03-29T13:07:05.674Z,9.50
2023-03-29T13:09:25.712Z,10.02
2023-03-29T13:11:33.062Z,9.97
2023-03-29T13:13:37.176Z,9.66
2023-03-29T13:15:39.618Z,9.59
2023-03-29T13:17:57.114Z,9.78
2023-03-29T13:20:21.645Z,9.62
2023-03-29T13:22:41.874Z,9.56
2023-03-29T13:25:04.669Z,9.31
2023-03-29T13:27:34.331Z,9.57
2023-03-29T13:30:06.821Z,9.87
2023-03-29T13:32:32.854Z,10.09
2023-03-29T13:34:49.067Z,10.39
2023-03-29T13:37:00.297Z,9.60
2023-03-29T13:39:05.056Z,9.81
2023-03-29T13:41:27.579Z,10.42
2023-03-29T13:43:32.530Z,10.35
2023-03-29T13:45:34.104Z,10.37
2023-03-29T13:47:43.221Z,10.33
2023-03-29T13:49:54.193Z,10.08
2023-03-29T13:52:02.583Z,10.00
2023-03-29T13:54:26.715Z,9.69
2023-03-29T13:56:38.495Z,9.77
2023-03-29T13:58:47.175Z,10.10
2023-03-29T14:01:27.139Z,9.89
2023-03-29T14:03:31.739Z,10.14
2023-03-29T14:05:47.811Z,10.44
2023-03-29T14:07:52.065Z,10.02
2023-03-29T14:09:56.665Z,10.06
2023-03-29T14:12:00.224Z,10.27
2023-03-29T14:14:04.989Z,10.25
2023-03-29T14:16:10.055Z,10.08
2023-03-29T14:18:18.500Z,10.45
2023-03-29T14:20:19.955Z,10.31
2023-03-29T14:22:21.933Z,10.37
2023-03-29T14:24:27.968Z,10.59
2023-03-29T14:26:34.206Z,10.68
2023-03-29T14:28:36.580Z,10.59
2023-03-29T14:30:37.983Z,10.98
2023-03-29T14:32:39.428Z,10.77
2023-03-29T14:34:41.149Z,10.63
2023-03-29T14:36:47.576Z,10.43
2023-03-29T14:38:53.107Z,9.86
2023-03-29T14:40:59.657Z,9.67
2023-03-29T14:43:06.901Z,9.57
2023-03-29T14:45:15.420Z,9.54
2023-03-29T14:47:27.445Z,9.26
2023-03-29T14:49:29.241Z,9.60
2023-03-29T14:51:30.765Z,9.87
2023-03-29T14:53:32.873Z,9.93
2023-03-29T14:55:34.672Z,10.19
2023-03-29T14:57:36.732Z,10.18
2023-03-29T14:59:42.216Z,9.98
2023-03-29T15:01:44.447Z,10.41
2023-03-29T15:03:56.495Z,10.13
2023-03-29T15:06:02.665Z,10.35
2023-03-29T15:08:06.264Z,10.21
2023-03-29T15:10:08.276Z,9.98
2023-03-29T15:12:15.929Z,9.81
2023-03-29T15:14:20.126Z,9.73
2023-03-29T15:16:22.322Z,9.74
2023-03-29T15:18:35.000Z,9.55
2023-03-29T15:20:38.596Z,9.21
2023-03-29T15:22:51.658Z,9.19
2023-03-29T15:24:53.360Z,9.29
2023-03-29T15:27:10.565Z,9.52
2023-03-29T15:29:14.307Z,9.39
2023-03-29T15:31:20.172Z,9.41
2023-03-29T15:33:22.945Z,9.23
2023-03-29T15:35:25.171Z,9.22
2023-03-29T15:37:27.453Z,9.18
2023-03-29T15:39:29.359Z,9.59
2023-03-29T15:41:30.927Z,9.48
2023-03-29T15:43:32.559Z,9.32
2023-03-29T15:45:33.984Z,9.38
2023-03-29T15:47:35.403Z,9.50
2023-03-29T15:49:37.094Z,9.09
2023-03-29T15:51:39.131Z,9.31
2023-03-29T15:53:40.986Z,9.21
2023-03-29T15:55:46.026Z,9.16
2023-03-29T15:57:48.699Z,9.46
2023-03-29T15:59:50.602Z,9.48
2023-03-29T16:01:52.312Z,9.43
2023-03-29T16:03:53.779Z,9.08
2023-03-29T16:05:55.459Z,9.05
2023-03-29T16:07:57.058Z,8.94
2023-03-29T16:09:58.489Z,8.96
2023-03-29T16:11:59.894Z,8.93
2023-03-29T16:14:01.536Z,9.06
2023-03-29T16:16:03.270Z,9.03
2023-03-29T16:18:05.194Z,9.13
2023-03-29T16:20:07.519Z,9.13
2023-03-29T16:22:08.940Z,8.89
2023-03-29T16:24:16.336Z,9.03
2023-03-29T16:26:17.897Z,9.03
2023-03-29T16:28:19.296Z,8.88
2023-03-29T16:30:20.746Z,8.83
2023-03-29T16:32:22.539Z,8.83
2023-03-29T16:34:24.065Z,9.00
2023-03-29T16:36:25.533Z,8.74
2023-03-29T16:38:27.238Z,8.69
2023-03-29T16:40:28.755Z,8.71
2023-03-29T16:42:30.177Z,8.64
2023-03-29T16:44:32.442Z,8.65
2023-03-29T16:46:34.195Z,8.64
2023-03-29T16:48:36.037Z,8.62
2023-03-29T16:50:37.582Z,8.56
2023-03-29T16:52:39.353Z,8.57
2023-03-29T16:54:40.759Z,8.56
2023-03-29T16:56:42.204Z,8.70
2023-03-29T16:58:44.101Z,8.90
2023-03-29T17:00:47.934Z,8.94
2023-03-29T17:02:50.132Z,8.91
2023-03-29T17:04:51.701Z,8.92
2023-03-29T17:06:53.147Z,8.95
2023-03-29T17:08:54.661Z,8.90
2023-03-29T17:10:56.270Z,8.68
2023-03-29T17:12:57.720Z,8.55
2023-03-29T17:14:59.530Z,8.55
2023-03-29T17:17:01.394Z,8.55
2023-03-29T17:19:02.799Z,8.44
2023-03-29T17:21:04.724Z,8.57
2023-03-29T17:23:06.252Z,8.56
2023-03-29T17:25:08.729Z,8.54
2023-03-29T17:27:10.625Z,8.24
2023-03-29T17:29:12.038Z,8.15
2023-03-29T17:31:13.495Z,7.85
2023-03-29T17:33:15.126Z,7.87
2023-03-29T17:35:16.645Z,7.79
2023-03-29T17:37:18.139Z,7.85
2023-03-29T17:39:19.632Z,7.88
2023-03-29T17:41:21.518Z,7.88
2023-03-29T17:43:23.042Z,7.83
2023-03-29T17:45:24.541Z,7.80
2023-03-29T17:47:25.958Z,7.87
2023-03-29T17:49:27.516Z,7.92
2023-03-29T17:51:29.238Z,7.95
2023-03-29T17:53:30.678Z,7.90
2023-03-29T17:55:32.105Z,7.61
2023-03-29T17:57:33.697Z,7.53
2023-03-29T17:59:35.088Z,7.31
2023-03-29T18:01:38.999Z,7.24
2023-03-29T18:03:41.868Z,7.36
2023-03-29T18:05:43.300Z,7.38
2023-03-29T18:07:44.737Z,7.33
2023-03-29T18:09:46.400Z,7.37
2023-03-29T18:11:47.808Z,7.41
2023-03-29T18:13:50.866Z,7.49
2023-03-29T18:15:56.145Z,7.56
2023-03-29T18:17:57.676Z,7.49
2023-03-29T18:19:59.155Z,7.44
2023-03-29T18:22:00.632Z,7.45
2023-03-29T18:24:02.331Z,7.49
2023-03-29T18:26:04.480Z,7.43
2023-03-29T18:28:06.388Z,7.39
2023-03-29T18:30:08.868Z,7.26
2023-03-29T18:32:11.397Z,7.36
2023-03-29T18:34:13.071Z,7.23
2023-03-29T18:36:15.035Z,7.24
2023-03-29T18:38:17.486Z,7.18
2023-03-29T18:40:19.298Z,7.07
2023-03-29T18:42:20.702Z,7.00
2023-03-29T18:44:22.092Z,7.04
2023-03-29T18:46:23.812Z,7.09
2023-03-29T18:48:25.580Z,6.99
2023-03-29T18:50:26.972Z,7.06
2023-03-29T18:52:28.888Z,6.94
2023-03-29T18:54:30.351Z,6.76
2023-03-29T18:56:31.977Z,6.75
2023-03-29T18:58:34.431Z,6.66
2023-03-29T19:00:36.866Z,6.33
2023-03-29T19:02:39.494Z,6.58
2023-03-29T19:04:41.269Z,6.51
2023-03-29T19:06:42.662Z,6.50
2023-03-29T19:08:44.111Z,6.47
2023-03-29T19:10:45.612Z,6.39
2023-03-29T19:12:47.035Z,6.29
2023-03-29T19:14:48.476Z,6.31
2023-03-29T19:16:51.817Z,6.19
2023-03-29T19:18:53.503Z,6.14
2023-03-29T19:20:55.018Z,5.99
2023-03-29T19:22:57.084Z,5.80
2023-03-29T19:24:58.496Z,5.80
2023-03-29T19:26:59.954Z,5.77
2023-03-29T19:29:01.696Z,5.68
2023-03-29T19:31:04.157Z,5.52
2023-03-29T19:33:05.639Z,5.51
2023-03-29T19:35:07.526Z,5.43
2023-03-29T19:37:08.948Z,5.47
2023-03-29T19:39:10.328Z,5.43
2023-03-29T19:41:11.851Z,5.42
2023-03-29T19:43:13.384Z,5.53
2023-03-29T19:45:15.153Z,5.46
2023-03-29T19:47:16.576Z,5.55
2023-03-29T19:49:18.017Z,5.66
2023-03-29T19:51:19.495Z,5.58
2023-03-29T19:53:20.981Z,5.61
2023-03-29T19:55:22.802Z,5.65
2023-03-29T19:57:24.978Z,5.54
2023-03-29T19:59:27.093Z,5.41
2023-03-29T20:01:28.552Z,5.32
2023-03-29T20:03:30.066Z,5.42
2023-03-29T20:05:31.772Z,5.44
2023-03-29T20:07:33.175Z,5.40
2023-03-29T20:09:34.672Z,5.32
2023-03-29T20:11:36.138Z,5.26
2023-03-29T20:13:40.479Z,5.38
2023-03-29T20:15:45.563Z,5.37
2023-03-29T20:17:47.079Z,5.59
2023-03-29T20:19:48.588Z,5.64
2023-03-29T20:21:53.648Z,5.58
2023-03-29T20:23:56.209Z,5.73
2023-03-29T20:25:58.236Z,5.86
2023-03-29T20:27:59.815Z,5.90
2023-03-29T20:30:01.322Z,5.95
2023-03-29T20:32:03.225Z,5.98
2023-03-29T20:34:04.840Z,6.00
2023-03-29T20:36:06.632Z,5.99
2023-03-29T20:38:08.214Z,6.04
2023-03-29T20:40:09.941Z,6.15
2023-03-29T20:42:11.405Z,6.04
2023-03-29T20:44:13.963Z,6.17
2023-03-29T20:46:15.552Z,6.20
2023-03-29T20:48:17.611Z,6.18
2023-03-29T20:50:19.309Z,6.20
2023-03-29T20:52:22.312Z,6.12
2023-03-29T20:54:24.635Z,6.21
2023-03-29T20:56:26.021Z,6.31
2023-03-29T20:58:27.612Z,6.38
2023-03-29T21:00:32.003Z,6.35
2023-03-29T21:02:33.491Z,6.06
2023-03-29T21:04:35.075Z,6.00
2023-03-29T21:06:43.385Z,6.13
2023-03-29T21:08:46.674Z,6.04
2023-03-29T21:10:48.667Z,6.04
2023-03-29T21:12:51.577Z,6.12
2023-03-29T21:14:53.201Z,6.09
2023-03-29T21:16:54.786Z,6.15
2023-03-29T21:18:56.464Z,6.17
2023-03-29T21:20:58.074Z,6.13
2023-03-29T21:22:59.922Z,6.25
2023-03-29T21:25:01.921Z,6.08
2023-03-29T21:27:03.575Z,6.37
2023-03-29T21:29:05.196Z,6.33
2023-03-29T21:31:07.631Z,6.29
2023-03-29T21:33:09.352Z,6.08
2023-03-29T21:35:10.934Z,6.09
2023-03-29T21:37:14.618Z,6.11
2023-03-29T21:39:16.819Z,5.96
2023-03-29T21:41:18.766Z,5.81
2023-03-29T21:43:20.258Z,5.77
2023-03-29T21:45:21.772Z,5.86
2023-03-29T21:47:23.295Z,5.91
2023-03-29T21:49:24.730Z,6.10
2023-03-29T21:51:26.243Z,6.17
2023-03-29T21:53:28.009Z,6.06
2023-03-29T21:55:29.486Z,5.94
2023-03-29T21:57:31.329Z,6.17
2023-03-29T21:59:32.908Z,6.15
2023-03-29T22:01:34.353Z,5.99
2023-03-29T22:03:37.198Z,5.86
2023-03-29T22:05:38.667Z,5.65
2023-03-29T22:07:40.069Z,5.79
2023-03-29T22:09:41.667Z,5.73
2023-03-29T22:11:43.318Z,5.71
2023-03-29T22:13:44.945Z,5.69
2023-03-29T22:15:46.433Z,5.66
2023-03-29T22:17:48.335Z,5.73
2023-03-29T22:19:49.743Z,5.76
2023-03-29T22:21:51.306Z,5.80
2023-03-29T22:23:55.450Z,5.76
2023-03-29T22:25:56.845Z,5.76
2023-03-29T22:27:58.555Z,5.91
2023-03-29T22:30:00.220Z,5.62
2023-03-29T22:32:01.651Z,5.64
2023-03-29T22:34:03.655Z,5.64
2023-03-29T22:36:31.551Z,5.58
2023-03-29T22:38:32.945Z,5.40
2023-03-29T22:40:34.547Z,5.54
2023-03-29T22:42:36.390Z,5.43
2023-03-29T22:44:37.808Z,5.11
2023-03-29T22:46:39.435Z,5.37
2023-03-29T22:48:41.189Z,5.41
2023-03-29T22:50:45.992Z,5.23
2023-03-29T22:52:47.608Z,5.31
2023-03-29T22:54:49.297Z,5.29
2023-03-29T22:56:50.823Z,5.34
2023-03-29T22:58:52.406Z,5.24
2023-03-29T23:00:54.076Z,5.27
2023-03-29T23:02:55.574Z,5.39
2023-03-29T23:04:57.214Z,5.40
2023-03-29T23:06:58.891Z,5.27
2023-03-29T23:09:00.310Z,5.14
2023-03-29T23:11:03.228Z,5.17
2023-03-29T23:13:05.061Z,5.24
2023-03-29T23:15:07.185Z,5.27
2023-03-29T23:17:08.664Z,5.29
2023-03-29T23:19:10.157Z,5.44
2023-03-29T23:21:11.552Z,5.51
2023-03-29T23:23:13.270Z,5.44
2023-03-29T23:25:14.954Z,5.67
2023-03-29T23:27:16.470Z,5.50
2023-03-29T23:29:18.099Z,5.54
2023-03-29T23:31:20.041Z,5.37
2023-03-29T23:33:21.587Z,5.40
2023-03-29T23:35:23.078Z,5.50
2023-03-29T23:37:24.679Z,5.59
2023-03-29T23:39:26.077Z,5.40
2023-03-29T23:41:27.675Z,5.44
2023-03-29T23:43:31.939Z,5.41
2023-03-29T23:45:36.080Z,5.51
2023-03-29T23:47:37.598Z,5.53
2023-03-29T23:49:39.235Z,5.58
2023-03-29T23:51:40.656Z,5.53
2023-03-29T23:53:42.146Z,5.58
2023-03-29T23:55:44.627Z,5.78
2023-03-29T23:57:46.087Z,5.61
2023-03-29T23:59:47.735Z,5.63
